createdAt,value
2019-01-08T00:04:22.369Z,6.70
2019-01-08T00:07:01.852Z,6.64
2019-01-08T00:09:41.405Z,6.67
2019-01-08T00:12:21.014Z,6.65
2019-01-08T00:15:01.797Z,6.65
2019-01-08T00:17:41.039Z,6.54
2019-01-08T00:20:14.835Z,6.50
2019-01-08T00:22:49.793Z,6.45
2019-01-08T00:25:23.187Z,6.51
2019-01-08T00:27:59.770Z,6.47
2019-01-08T00:30:38.318Z,6.39
2019-01-08T00:33:18.915Z,6.33
2019-01-08T00:35:58.546Z,6.31
2019-01-08T00:38:38.517Z,6.26
2019-01-08T00:41:27.171Z,6.25
2019-01-08T00:44:05.618Z,6.21
2019-01-08T00:46:47.570Z,6.17
2019-01-08T00:49:26.090Z,6.17
2019-01-08T00:52:07.294Z,6.19
2019-01-08T00:54:45.835Z,6.16
2019-01-08T00:57:40.975Z,6.12
2019-01-08T01:00:20.949Z,6.14
2019-01-08T01:02:59.089Z,6.11
2019-01-08T01:05:41.560Z,6.13
2019-01-08T01:08:23.621Z,6.09
2019-01-08T01:11:01.541Z,6.14
2019-01-08T01:13:42.365Z,6.17
2019-01-08T01:16:25.080Z,6.10
2019-01-08T01:19:04.328Z,6.05
2019-01-08T01:21:41.626Z,6.07
2019-01-08T01:24:20.063Z,5.96
2019-01-08T01:27:01.977Z,5.95
2019-01-08T01:29:41.895Z,5.98
2019-01-08T01:32:20.841Z,5.93
2019-01-08T01:35:02.873Z,5.80
2019-01-08T01:37:38.360Z,5.78
2019-01-08T01:40:14.488Z,5.76
2019-01-08T01:42:54.461Z,5.75
2019-01-08T01:45:33.684Z,5.78
2019-01-08T01:48:11.873Z,5.76
2019-01-08T01:50:50.609Z,5.76
2019-01-08T01:53:29.801Z,5.70
2019-01-08T01:56:20.841Z,5.69
2019-01-08T01:58:54.466Z,5.71
2019-01-08T02:01:30.962Z,5.65
2019-01-08T02:04:05.224Z,5.72
2019-01-08T02:06:41.055Z,5.63
2019-01-08T02:09:14.901Z,5.66
2019-01-08T02:11:48.890Z,5.60
2019-01-08T02:14:22.056Z,5.55
2019-01-08T02:16:55.855Z,5.54
2019-01-08T02:19:29.212Z,5.59
2019-01-08T02:22:02.694Z,5.54
2019-01-08T02:24:38.565Z,5.54
2019-01-08T02:27:12.425Z,5.48
2019-01-08T02:29:50.822Z,5.50
2019-01-08T02:32:25.523Z,5.54
2019-01-08T02:35:00.418Z,5.53
2019-01-08T02:37:33.520Z,5.50
2019-01-08T02:40:07.464Z,5.47
2019-01-08T02:42:40.735Z,5.51
2019-01-08T02:45:13.736Z,5.47
2019-01-08T02:47:46.993Z,5.43
2019-01-08T02:50:19.699Z,5.44
2019-01-08T02:52:52.999Z,5.38
2019-01-08T02:55:25.916Z,5.42
2019-01-08T02:57:59.295Z,5.40
2019-01-08T03:00:32.190Z,5.40
2019-01-08T03:03:05.667Z,5.40
2019-01-08T03:05:39.450Z,5.44
2019-01-08T03:08:13.135Z,5.45
2019-01-08T03:10:46.692Z,5.42
2019-01-08T03:13:19.724Z,5.44
2019-01-08T03:15:53.586Z,5.54
2019-01-08T03:18:26.694Z,5.63
2019-01-08T03:20:59.777Z,5.61
2019-01-08T03:23:33.617Z,5.63
2019-01-08T03:26:07.518Z,5.58
2019-01-08T03:28:40.904Z,5.59
2019-01-08T03:31:17.907Z,5.73
2019-01-08T03:33:52.614Z,5.65
2019-01-08T03:36:26.595Z,5.65
2019-01-08T03:39:00.069Z,5.69
2019-01-08T03:41:34.656Z,5.67
2019-01-08T03:44:07.568Z,5.70
2019-01-08T03:46:41.385Z,5.66
2019-01-08T03:49:15.367Z,5.51
2019-01-08T03:51:48.754Z,5.46
2019-01-08T03:54:23.734Z,5.43
2019-01-08T03:57:09.564Z,5.43
2019-01-08T03:59:46.825Z,5.43
2019-01-08T04:02:19.898Z,5.43
2019-01-08T04:04:57.540Z,5.43
2019-01-08T04:07:32.557Z,5.44
2019-01-08T04:10:08.195Z,5.44
2019-01-08T04:12:42.106Z,5.41
2019-01-08T04:15:16.756Z,5.35
2019-01-08T04:17:55.767Z,5.39
2019-01-08T04:20:35.027Z,5.33
2019-01-08T04:23:15.282Z,5.22
2019-01-08T04:25:59.632Z,5.14
2019-01-08T04:28:44.634Z,5.08
2019-01-08T04:31:22.074Z,4.99
2019-01-08T04:34:02.507Z,4.96
2019-01-08T04:36:36.988Z,4.93
2019-01-08T04:39:15.873Z,4.83
2019-01-08T04:41:56.059Z,4.73
2019-01-08T04:44:29.535Z,4.61
2019-01-08T04:47:02.854Z,4.57
2019-01-08T04:49:37.161Z,4.54
2019-01-08T04:52:09.723Z,4.57
2019-01-08T04:54:50.014Z,4.52
2019-01-08T04:57:27.394Z,4.52
2019-01-08T05:00:06.075Z,4.47
2019-01-08T05:02:47.385Z,4.49
2019-01-08T05:05:26.462Z,4.49
2019-01-08T05:08:08.800Z,4.47
2019-01-08T05:10:47.217Z,4.52
2019-01-08T05:13:24.792Z,4.47
2019-01-08T05:16:00.801Z,4.47
2019-01-08T05:19:11.969Z,4.48
2019-01-08T05:22:23.778Z,4.50
2019-01-08T05:25:04.280Z,4.47
2019-01-08T05:27:42.348Z,4.43
2019-01-08T05:30:24.046Z,4.49
2019-01-08T05:32:59.227Z,4.51
2019-01-08T05:35:37.464Z,4.68
2019-01-08T05:38:18.502Z,4.73
2019-01-08T05:40:55.861Z,4.80
2019-01-08T05:43:34.979Z,4.77
2019-01-08T05:46:13.935Z,4.83
2019-01-08T05:48:50.709Z,4.90
2019-01-08T05:51:26.090Z,4.92
2019-01-08T05:54:01.519Z,4.94
2019-01-08T05:56:38.290Z,5.06
2019-01-08T05:59:15.514Z,5.05
2019-01-08T06:01:52.487Z,5.10
2019-01-08T06:04:26.765Z,5.09
2019-01-08T06:07:00.146Z,5.10
2019-01-08T06:09:33.935Z,5.14
2019-01-08T06:12:06.852Z,5.10
2019-01-08T06:14:40.573Z,5.10
2019-01-08T06:17:13.928Z,5.08
2019-01-08T06:19:47.544Z,5.14
2019-01-08T06:22:21.998Z,5.08
2019-01-08T06:24:56.089Z,5.10
2019-01-08T06:27:34.909Z,5.07
2019-01-08T06:30:11.331Z,5.05
2019-01-08T06:32:48.519Z,5.06
2019-01-08T06:35:24.062Z,5.10
2019-01-08T06:38:00.853Z,5.07
2019-01-08T06:40:34.822Z,5.10
2019-01-08T06:43:09.480Z,5.07
2019-01-08T06:45:43.008Z,5.12
2019-01-08T06:48:17.490Z,5.11
2019-01-08T06:50:56.562Z,5.12
2019-01-08T06:53:31.161Z,5.11
2019-01-08T06:56:10.078Z,5.08
2019-01-08T06:58:43.154Z,4.98
2019-01-08T07:01:16.413Z,5.06
2019-01-08T07:03:49.814Z,5.07
2019-01-08T07:06:23.695Z,5.07
2019-01-08T07:08:58.811Z,5.08
2019-01-08T07:11:32.959Z,5.05
2019-01-08T07:14:05.972Z,4.97
2019-01-08T07:16:39.292Z,4.93
2019-01-08T07:19:14.603Z,4.91
2019-01-08T07:21:47.242Z,4.94
2019-01-08T07:24:21.011Z,4.92
2019-01-08T07:26:54.872Z,4.98
2019-01-08T07:29:27.482Z,4.99
2019-01-08T07:32:00.377Z,4.89
2019-01-08T07:34:33.939Z,4.93
2019-01-08T07:37:07.320Z,5.00
2019-01-08T07:39:40.700Z,5.00
2019-01-08T07:42:14.264Z,5.01
2019-01-08T07:44:47.743Z,5.00
2019-01-08T07:47:20.430Z,5.03
2019-01-08T07:49:53.806Z,4.98
2019-01-08T07:52:28.621Z,4.96
2019-01-08T07:55:02.470Z,4.91
2019-01-08T07:57:35.761Z,4.90
2019-01-08T08:00:10.913Z,4.87
2019-01-08T08:02:44.918Z,4.86
2019-01-08T08:05:19.118Z,4.92
2019-01-08T08:07:54.435Z,4.97
2019-01-08T08:10:27.176Z,5.03
2019-01-08T08:13:00.539Z,5.05
2019-01-08T08:15:34.026Z,5.07
2019-01-08T08:18:07.349Z,5.08
2019-01-08T08:20:41.267Z,5.09
2019-01-08T08:23:14.367Z,5.03
2019-01-08T08:25:47.736Z,4.95
2019-01-08T08:28:21.139Z,4.96
2019-01-08T08:30:58.930Z,5.00
2019-01-08T08:33:29.879Z,5.00
2019-01-08T08:36:05.155Z,4.97
2019-01-08T08:38:38.536Z,5.04
2019-01-08T08:41:12.002Z,5.10
2019-01-08T08:43:45.419Z,5.05
2019-01-08T08:46:18.591Z,5.03
2019-01-08T08:48:51.672Z,4.98
2019-01-08T08:51:24.323Z,4.94
2019-01-08T08:53:57.008Z,4.92
2019-01-08T08:56:30.383Z,4.90
2019-01-08T15:17:57.723Z,4.27
2019-01-08T15:20:30.944Z,4.24
2019-01-08T15:23:03.935Z,4.38
2019-01-08T15:25:37.461Z,4.38
2019-01-08T15:28:12.319Z,4.28
2019-01-08T15:30:45.597Z,4.29
2019-01-08T15:33:19.002Z,4.30
2019-01-08T15:35:52.472Z,4.30
2019-01-08T15:38:26.395Z,4.24
2019-01-08T15:41:00.947Z,4.16
2019-01-08T15:43:33.909Z,4.25
2019-01-08T15:46:07.114Z,4.21
2019-01-08T15:48:42.320Z,4.18
2019-01-08T15:51:15.854Z,4.26
2019-01-08T15:53:49.838Z,4.16
2019-01-08T15:56:23.731Z,4.10
2019-01-08T15:58:57.036Z,4.12
2019-01-08T16:01:30.830Z,4.11
2019-01-08T16:04:04.241Z,4.03
2019-01-08T16:06:37.675Z,4.02
2019-01-08T16:09:10.455Z,4.05
2019-01-08T16:11:43.395Z,3.98
2019-01-08T16:14:16.802Z,3.95
2019-01-08T16:16:50.302Z,3.93
2019-01-08T16:19:23.809Z,3.87
2019-01-08T16:21:56.987Z,3.85
2019-01-08T16:24:29.987Z,3.81
2019-01-08T16:27:03.876Z,3.85
2019-01-08T16:29:38.611Z,3.98
2019-01-08T16:32:12.541Z,4.03
2019-01-08T16:34:45.525Z,4.00
2019-01-08T16:37:19.224Z,4.05
2019-01-08T16:39:53.147Z,4.03
2019-01-08T16:42:26.782Z,4.01
2019-01-08T16:45:00.361Z,4.03
2019-01-08T16:47:33.524Z,4.03
2019-01-08T16:50:07.448Z,3.95
2019-01-08T16:52:41.034Z,3.95
2019-01-08T16:55:14.543Z,3.97
2019-01-08T16:57:48.433Z,3.99
2019-01-08T17:00:21.640Z,3.94
2019-01-08T17:02:55.250Z,3.89
2019-01-08T17:05:29.085Z,3.89
2019-01-08T17:08:02.976Z,3.90
2019-01-08T17:10:37.671Z,3.92
2019-01-08T17:13:11.392Z,3.92
2019-01-08T17:15:45.327Z,3.85
2019-01-08T17:18:18.205Z,3.82
2019-01-08T17:20:51.262Z,3.82
2019-01-08T17:23:25.076Z,3.68
2019-01-08T17:25:59.125Z,3.59
2019-01-08T17:28:32.763Z,3.47
2019-01-08T17:31:06.243Z,3.48
2019-01-08T17:33:39.044Z,3.45
2019-01-08T17:36:12.159Z,3.43
2019-01-08T17:38:44.820Z,3.45
2019-01-08T17:41:19.014Z,3.48
2019-01-08T17:43:53.503Z,3.51
2019-01-08T17:46:26.413Z,3.60
2019-01-08T17:48:59.451Z,3.66
2019-01-08T17:51:33.479Z,3.71
2019-01-08T17:54:06.790Z,3.72
2019-01-08T17:56:40.568Z,3.75
2019-01-08T17:59:19.039Z,3.78
2019-01-08T18:01:54.070Z,3.77
2019-01-08T18:04:28.121Z,3.76
2019-01-08T18:07:01.697Z,3.71
2019-01-08T18:09:34.842Z,3.75
2019-01-08T18:12:07.760Z,3.71
2019-01-08T18:14:41.603Z,3.71
2019-01-08T18:17:15.236Z,3.79
2019-01-08T18:19:48.653Z,3.72
2019-01-08T18:22:22.253Z,3.70
2019-01-08T18:24:55.732Z,3.62
2019-01-08T18:27:29.783Z,3.60
2019-01-08T18:30:03.942Z,3.60
2019-01-08T18:32:37.041Z,3.60
2019-01-08T18:35:11.687Z,3.60
2019-01-08T18:37:45.966Z,3.56
2019-01-08T18:40:19.494Z,3.49
2019-01-08T18:42:53.022Z,3.47
2019-01-08T18:45:26.190Z,3.35
2019-01-08T18:47:59.690Z,3.31
2019-01-08T18:50:33.284Z,3.30
2019-01-08T18:53:05.976Z,3.33
2019-01-08T18:55:39.152Z,3.33
2019-01-08T18:58:12.171Z,3.41
2019-01-08T19:00:45.671Z,3.55
2019-01-08T19:03:19.703Z,3.47
2019-01-08T19:05:53.200Z,3.47
2019-01-08T19:09:03.538Z,3.52
2019-01-08T19:11:38.876Z,3.63
2019-01-08T19:14:12.343Z,3.63
2019-01-08T19:16:45.500Z,3.68
2019-01-08T19:19:21.928Z,3.62
2019-01-08T19:21:56.013Z,3.65
2019-01-08T19:24:29.887Z,3.61
2019-01-08T19:27:02.672Z,3.55
2019-01-08T19:29:37.378Z,3.47
2019-01-08T19:32:11.449Z,3.50
2019-01-08T19:34:44.714Z,3.51
2019-01-08T19:37:18.116Z,3.58
2019-01-08T19:39:52.276Z,3.55
2019-01-08T19:42:28.339Z,3.60
2019-01-08T19:45:01.173Z,3.60
2019-01-08T19:47:34.683Z,3.59
2019-01-08T19:50:08.418Z,3.58
2019-01-08T19:52:41.628Z,3.59
2019-01-08T19:55:18.303Z,3.54
2019-01-08T19:57:51.291Z,3.53
2019-01-08T20:00:25.055Z,3.59
2019-01-08T20:02:57.946Z,3.53
2019-01-08T20:05:30.762Z,3.60
2019-01-08T20:08:04.777Z,3.60
2019-01-08T20:10:37.855Z,3.66
2019-01-08T20:13:11.433Z,3.67
2019-01-08T20:15:45.476Z,3.70
2019-01-08T20:18:18.602Z,3.71
2019-01-08T20:20:55.034Z,3.67
2019-01-08T20:23:28.502Z,3.61
2019-01-08T20:26:01.965Z,3.68
2019-01-08T20:28:35.802Z,3.69
2019-01-08T20:31:09.568Z,3.71
2019-01-08T20:33:42.746Z,3.73
2019-01-08T20:36:16.349Z,3.72
2019-01-08T20:38:50.030Z,3.76
2019-01-08T20:41:23.814Z,3.74
2019-01-08T20:43:56.837Z,3.71
2019-01-08T20:46:30.885Z,3.68
2019-01-08T20:49:04.570Z,3.67
2019-01-08T20:51:39.110Z,3.65
2019-01-08T20:54:12.161Z,3.65
2019-01-08T20:56:45.866Z,3.65
2019-01-08T20:59:21.940Z,3.58
2019-01-08T21:01:55.587Z,3.52
2019-01-08T21:04:35.419Z,3.55
2019-01-08T21:07:03.676Z,3.51
2019-01-08T21:09:37.235Z,3.48
2019-01-08T21:12:11.235Z,3.43
2019-01-08T21:14:44.780Z,3.38
2019-01-08T21:17:17.850Z,3.27
2019-01-08T21:19:51.130Z,3.11
2019-01-08T21:22:24.546Z,2.96
2019-01-08T21:24:57.853Z,2.82
2019-01-08T21:27:31.023Z,2.73
2019-01-08T21:30:04.226Z,2.68
2019-01-08T21:32:39.343Z,2.69
2019-01-08T21:35:13.508Z,2.68
2019-01-08T21:37:47.201Z,2.68
2019-01-08T21:40:20.375Z,2.69
2019-01-08T21:42:53.892Z,2.67
2019-01-08T21:45:27.166Z,2.63
2019-01-08T21:48:00.885Z,2.63
2019-01-08T21:50:34.279Z,2.68
2019-01-08T21:53:07.486Z,2.63
2019-01-08T21:55:41.295Z,2.67
2019-01-08T21:58:14.377Z,2.70
2019-01-08T22:00:50.913Z,2.80
2019-01-08T22:03:23.921Z,2.81
2019-01-08T22:05:56.936Z,2.81
2019-01-08T22:08:30.486Z,2.83
2019-01-08T22:11:04.447Z,2.93
2019-01-08T22:13:37.923Z,2.82
2019-01-08T22:16:11.748Z,2.81
2019-01-08T22:18:45.267Z,2.87
2019-01-08T22:21:18.358Z,2.97
2019-01-08T22:23:52.340Z,2.91
2019-01-08T22:26:25.979Z,2.89
2019-01-08T22:29:00.123Z,2.90
2019-01-08T22:31:33.544Z,2.91
2019-01-08T22:34:07.501Z,2.84
2019-01-08T22:36:40.778Z,2.77
2019-01-08T22:39:14.340Z,2.77
2019-01-08T22:41:48.141Z,2.74
2019-01-08T22:44:21.556Z,2.80
2019-01-08T22:46:55.463Z,2.78
2019-01-08T22:49:29.096Z,2.77
2019-01-08T22:52:02.705Z,2.79
2019-01-08T22:54:36.376Z,2.75
2019-01-08T22:57:09.446Z,2.76
2019-01-08T22:59:45.557Z,2.70
2019-01-08T23:02:18.201Z,2.73
2019-01-08T23:04:51.673Z,2.59
2019-01-08T23:07:24.372Z,2.60
2019-01-08T23:09:58.292Z,2.48
2019-01-08T23:12:32.269Z,2.46
2019-01-08T23:15:05.594Z,2.46
2019-01-08T23:17:39.478Z,2.43
2019-01-08T23:20:12.993Z,2.42
2019-01-08T23:22:46.528Z,2.43
2019-01-08T23:25:20.496Z,2.47
2019-01-08T23:27:54.274Z,2.53
2019-01-08T23:30:27.579Z,2.58
2019-01-08T23:33:00.282Z,2.54
2019-01-08T23:35:33.950Z,2.50
2019-01-08T23:38:06.634Z,2.50
2019-01-08T23:40:40.191Z,2.49
2019-01-08T23:43:13.577Z,2.50
2019-01-08T23:45:45.903Z,2.48
2019-01-08T23:48:19.469Z,2.49
2019-01-08T23:50:52.984Z,2.51
2019-01-08T23:53:30.842Z,2.42
2019-01-08T23:56:07.624Z,2.42
2019-01-08T23:58:39.977Z,2.32
